Time;durP1;ratioP1;P1;durP2;ratioP2;P2;SDS_P1;SDS_P2;PMS_P1;PMS_P2;Temp;Humidity;BMP_temperature;BMP_pressure;BME280_temperature;BME280_humidity;BME280_pressure;Samples;Min_cycle;Max_cycle;Signal;HPM_P1;HPM_P2
2021/08/07 00:00:33;;;;;;;0.47;0.47;;;12.50;91.60;;;;;;2057214;28;20190;-69
2021/08/07 00:01:34;;;;;;;0.55;0.55;;;12.50;91.20;;;;;;2057169;28;20175;-68
2021/08/07 00:02:35;;;;;;;3.22;0.90;;;12.50;91.20;;;;;;2057120;28;20182;-68
2021/08/07 00:03:36;;;;;;;1.03;0.70;;;12.50;91.10;;;;;;2057179;28;20212;-69
2021/08/07 00:04:36;;;;;;;0.87;0.60;;;12.50;91.60;;;;;;2057370;28;20203;-68
2021/08/07 00:05:37;;;;;;;0.60;0.60;;;12.40;91.10;;;;;;2057058;28;20648;-69
2021/08/07 00:06:38;;;;;;;0.33;0.33;;;12.40;91.10;;;;;;2057168;28;20206;-69
2021/08/07 00:07:39;;;;;;;0.93;0.90;;;12.50;91.10;;;;;;2057056;28;20175;-68
2021/08/07 00:08:39;;;;;;;0.87;0.80;;;12.50;91.00;;;;;;2056580;28;20179;-68
2021/08/07 00:09:40;;;;;;;1.20;0.80;;;12.50;90.90;;;;;;2056500;28;20193;-69
2021/08/07 00:10:41;;;;;;;0.60;0.60;;;12.50;90.80;;;;;;2057124;28;20274;-68
2021/08/07 00:11:42;;;;;;;0.63;0.63;;;12.60;90.80;;;;;;2056403;28;20179;-68
2021/08/07 00:12:43;;;;;;;1.73;1.10;;;12.60;90.80;;;;;;2040509;29;20177;-68
2021/08/07 00:13:44;;;;;;;1.97;0.97;;;12.60;90.80;;;;;;2048397;29;20187;-68
2021/08/07 00:14:44;;;;;;;0.90;0.90;;;12.60;91.30;;;;;;2057074;28;20534;-68
2021/08/07 00:15:45;;;;;;;0.93;0.93;;;12.70;90.80;;;;;;2056475;28;20646;-68
2021/08/07 00:16:46;;;;;;;0.60;0.60;;;12.70;90.80;;;;;;2048388;29;20176;-68
2021/08/07 00:17:47;;;;;;;9.83;0.60;;;12.70;90.80;;;;;;2056104;28;20175;-69
2021/08/07 00:18:47;;;;;;;0.70;0.70;;;12.80;90.60;;;;;;2056520;28;20686;-68
2021/08/07 00:19:48;;;;;;;0.67;0.67;;;12.80;90.50;;;;;;2056246;28;20556;-69
2021/08/07 00:20:49;;;;;;;1.03;0.87;;;12.80;90.50;;;;;;2057039;28;20566;-69
2021/08/07 00:21:50;;;;;;;1.20;0.93;;;12.80;90.30;;;;;;2056824;28;20170;-68
2021/08/07 00:22:50;;;;;;;1.33;1.23;;;12.80;90.30;;;;;;2057065;28;20789;-68
2021/08/07 00:23:51;;;;;;;0.70;0.70;;;12.80;90.50;;;;;;2056245;28;20253;-69
2021/08/07 00:24:52;;;;;;;0.60;0.60;;;12.80;90.50;;;;;;2056421;28;20197;-68
2021/08/07 00:25:53;;;;;;;1.10;0.57;;;12.80;90.60;;;;;;2056763;28;20186;-68
2021/08/07 00:26:53;;;;;;;0.83;0.83;;;12.80;90.60;;;;;;2056788;28;20233;-69
2021/08/07 00:27:54;;;;;;;0.87;0.87;;;12.80;90.90;;;;;;2056200;28;20812;-68
2021/08/07 00:28:55;;;;;;;0.57;0.57;;;12.80;90.30;;;;;;2056370;28;20183;-68
2021/08/07 00:29:55;;;;;;;1.03;0.60;;;12.90;90.20;;;;;;2056826;28;20211;-69
2021/08/07 00:30:56;;;;;;;1.23;0.83;;;12.80;90.00;;;;;;2056418;28;20183;-68
2021/08/07 00:31:57;;;;;;;0.60;0.60;;;12.90;89.90;;;;;;2056455;28;20183;-68
2021/08/07 00:32:57;;;;;;;0.93;0.87;;;12.90;90.00;;;;;;2056934;28;20262;-68
2021/08/07 00:33:58;;;;;;;0.70;0.60;;;12.80;90.00;;;;;;2056161;28;20209;-68
2021/08/07 00:34:59;;;;;;;0.97;0.97;;;12.80;90.00;;;;;;2056297;28;20331;-69
2021/08/07 00:35:59;;;;;;;1.03;0.87;;;12.80;90.00;;;;;;2056072;28;20197;-69
2021/08/07 00:37:05;;;;;;;0.60;0.60;;;12.80;90.10;;;;;;2055975;28;20501;-69
2021/08/07 00:38:06;;;;;;;0.75;0.50;;;12.80;90.10;;;;;;2056729;28;20171;-69
2021/08/07 00:39:07;;;;;;;0.57;0.57;;;12.80;90.20;;;;;;2056070;28;20218;-68
2021/08/07 00:40:08;;;;;;;0.87;0.70;;;12.80;90.30;;;;;;2056234;28;20651;-68
2021/08/07 00:41:09;;;;;;;0.65;0.65;;;12.80;90.30;;;;;;2056562;28;20233;-68
2021/08/07 00:42:09;;;;;;;0.70;0.70;;;12.80;90.30;;;;;;2056812;28;20171;-68
2021/08/07 00:43:11;;;;;;;1.17;0.67;;;12.70;90.90;;;;;;2056773;28;20167;-68
2021/08/07 00:44:11;;;;;;;0.90;0.63;;;12.70;90.50;;;;;;2056529;28;20669;-68
2021/08/07 00:45:13;;;;;;;0.60;0.50;;;12.70;90.50;;;;;;2056122;28;20258;-68
2021/08/07 00:46:14;;;;;;;0.55;0.55;;;12.70;90.40;;;;;;2056257;28;20182;-68
2021/08/07 00:47:14;;;;;;;0.70;0.70;;;12.70;90.40;;;;;;2056541;28;20179;-69
2021/08/07 00:48:15;;;;;;;9.73;0.70;;;12.70;90.40;;;;;;2056727;28;20226;-68
2021/08/07 00:49:16;;;;;;;1.10;1.00;;;12.70;90.40;;;;;;2056005;28;20168;-68
2021/08/07 00:50:16;;;;;;;0.70;0.70;;;12.80;90.40;;;;;;2056264;28;20242;-69
2021/08/07 00:51:18;;;;;;;1.23;1.00;;;12.80;90.30;;;;;;2056039;28;20214;-68
2021/08/07 00:52:19;;;;;;;1.08;0.65;;;12.90;90.30;;;;;;2056161;28;20194;-68
2021/08/07 00:53:21;;;;;;;0.60;0.60;;;12.90;90.80;;;;;;2056689;28;20269;-68
2021/08/07 00:54:22;;;;;;;0.73;0.73;;;12.90;90.30;;;;;;2056061;28;20230;-69
2021/08/07 00:55:23;;;;;;;0.70;0.70;;;12.90;90.40;;;;;;2055994;28;20179;-68
2021/08/07 00:56:24;;;;;;;0.57;0.53;;;12.80;90.30;;;;;;2056151;28;20183;-69
2021/08/07 00:57:26;;;;;;;0.97;0.63;;;12.80;90.40;;;;;;2055956;28;20703;-69
2021/08/07 00:58:26;;;;;;;1.02;0.70;;;12.80;90.50;;;;;;2055782;28;20187;-68
2021/08/07 00:59:27;;;;;;;1.13;0.97;;;12.70;90.50;;;;;;2055474;28;20183;-68
2021/08/07 01:00:28;;;;;;;0.83;0.60;;;12.70;90.50;;;;;;2055904;28;20206;-68
2021/08/07 01:01:37;;;;;;;12.10;1.15;;;12.70;90.60;;;;;;2056048;28;20254;-68
2021/08/07 01:02:42;;;;;;;1.38;0.93;;;12.60;90.80;;;;;;2056147;28;20166;-68
2021/08/07 01:03:48;;;;;;;1.40;0.80;;;12.60;90.80;;;;;;2055989;28;20207;-68
2021/08/07 01:05:14;;;;;;;0.90;0.75;;;12.70;90.80;;;;;;2056257;28;20198;-69
2021/08/07 01:06:44;;;;;;;0.60;0.60;;;12.70;90.60;;;;;;2056073;28;20172;-68
2021/08/07 01:07:57;;;;;;;0.68;0.68;;;12.80;90.60;;;;;;2056236;28;20569;-69
2021/08/07 01:09:13;;;;;;;1.38;0.90;;;12.80;90.70;;;;;;2056130;28;20201;-68
2021/08/07 01:10:42;;;;;;;0.98;0.98;;;12.80;90.60;;;;;;2056222;28;20182;-68
2021/08/07 01:11:54;;;;;;;0.40;0.40;;;12.90;90.50;;;;;;2055996;28;20185;-68
2021/08/07 01:13:27;;;;;;;0.82;0.82;;;12.90;90.40;;;;;;2056095;28;20174;-69
2021/08/07 01:14:37;;;;;;;0.82;0.68;;;12.90;90.20;;;;;;2055841;28;20206;-68
2021/08/07 01:15:54;;;;;;;0.70;0.70;;;13.00;90.20;;;;;;2049282;28;20749;-68
2021/08/07 01:16:55;;;;;;;0.40;0.40;;;13.00;90.20;;;;;;2050128;28;20667;-69
2021/08/07 01:17:58;;;;;;;0.70;0.70;;;13.00;90.20;;;;;;2056144;28;20189;-68
2021/08/07 01:19:00;;;;;;;0.40;0.40;;;13.10;90.10;;;;;;2056145;28;20189;-70
2021/08/07 01:20:15;;;;;;;0.47;0.47;;;13.10;89.90;;;;;;2055945;28;20387;-68
2021/08/07 01:21:22;;;;;;;0.85;0.70;;;13.10;89.80;;;;;;2048038;29;20689;-68
2021/08/07 01:22:34;;;;;;;0.65;0.65;;;13.10;89.90;;;;;;2041491;28;20188;-70
2021/08/07 01:23:49;;;;;;;0.52;0.52;;;13.10;89.80;;;;;;2049588;28;20170;-68
2021/08/07 01:24:59;;;;;;;0.30;0.30;;;13.10;89.80;;;;;;2049870;28;20672;-68
2021/08/07 01:26:18;;;;;;;0.50;0.50;;;13.10;89.80;;;;;;2041324;29;20169;-68
2021/08/07 01:27:34;;;;;;;1.15;0.90;;;13.00;89.90;;;;;;2050526;28;20184;-69
2021/08/07 01:28:40;;;;;;;2.47;0.88;;;13.00;90.10;;;;;;2055974;28;20197;-68
2021/08/07 01:29:41;;;;;;;0.55;0.55;;;12.90;90.20;;;;;;2056000;28;20317;-68
2021/08/07 01:30:43;;;;;;;0.95;0.93;;;12.80;90.40;;;;;;2055898;28;20190;-68
2021/08/07 01:31:48;;;;;;;0.82;0.70;;;12.70;90.40;;;;;;2048199;28;20238;-68
2021/08/07 01:32:54;;;;;;;5.10;0.82;;;12.80;90.30;;;;;;2048474;28;20195;-69
2021/08/07 01:33:56;;;;;;;0.35;0.35;;;12.80;90.20;;;;;;2055998;28;20194;-69
2021/08/07 01:34:58;;;;;;;0.60;0.60;;;12.80;90.30;;;;;;2055930;28;20617;-68
2021/08/07 01:36:00;;;;;;;1.00;1.00;;;12.70;90.40;;;;;;2047966;29;20196;-68
2021/08/07 01:37:01;;;;;;;0.50;0.50;;;12.80;90.40;;;;;;2047966;28;20186;-69
2021/08/07 01:38:06;;;;;;;0.68;0.68;;;12.70;90.50;;;;;;2055971;28;20183;-68
2021/08/07 01:39:09;;;;;;;0.82;0.82;;;12.70;90.50;;;;;;2055964;28;20190;-68
2021/08/07 01:40:10;;;;;;;0.75;0.75;;;12.70;90.50;;;;;;2055976;28;20229;-68
2021/08/07 01:41:22;;;;;;;0.60;0.60;;;12.70;90.60;;;;;;2055825;28;20411;-69
2021/08/07 01:42:24;;;;;;;0.73;0.73;;;12.70;90.50;;;;;;2056082;28;20179;-68
2021/08/07 01:43:25;;;;;;;2.08;0.52;;;12.70;90.70;;;;;;2055686;28;20175;-69
2021/08/07 01:44:26;;;;;;;1.10;0.60;;;12.70;90.70;;;;;;2055188;28;20301;-68
2021/08/07 01:45:26;;;;;;;0.40;0.40;;;12.70;90.70;;;;;;2052264;28;20551;-68
2021/08/07 01:46:42;;;;;;;0.30;0.30;;;12.70;90.80;;;;;;2052450;28;20203;-68
2021/08/07 01:48:07;;;;;;;0.55;0.55;;;12.70;90.70;;;;;;2047685;29;20282;-68
2021/08/07 01:49:19;;;;;;;0.90;0.80;;;12.70;90.60;;;;;;2049363;28;20175;-69
2021/08/07 01:50:31;;;;;;;0.43;0.43;;;12.70;90.70;;;;;;2048123;29;20168;-68
2021/08/07 01:52:06;;;;;;;0.30;0.30;;;12.70;90.70;;;;;;2047847;29;20178;-68
2021/08/07 01:53:16;;;;;;;0.85;0.82;;;12.70;90.70;;;;;;2044524;29;20187;-68
2021/08/07 01:54:28;;;;;;;0.30;0.30;;;12.70;90.70;;;;;;2040954;29;20212;-68
2021/08/07 01:55:44;;;;;;;4.03;1.05;;;12.70;90.70;;;;;;2049346;28;20180;-69
2021/08/07 01:56:45;;;;;;;0.63;0.63;;;12.70;90.70;;;;;;2047871;29;20168;-68
2021/08/07 01:58:02;;;;;;;0.70;0.70;;;12.70;90.70;;;;;;2047662;29;20798;-68
2021/08/07 01:59:10;;;;;;;1.35;0.93;;;12.70;90.60;;;;;;2047830;29;20557;-70
2021/08/07 02:00:14;;;;;;;0.47;0.47;;;12.70;91.00;;;;;;2048629;28;20243;-69
2021/08/07 02:01:16;;;;;;;0.65;0.65;;;12.70;90.70;;;;;;2047951;29;20195;-68
2021/08/07 02:02:18;;;;;;;0.50;0.50;;;12.60;90.70;;;;;;2048184;28;20276;-69
2021/08/07 02:03:19;;;;;;;0.68;0.68;;;12.60;90.60;;;;;;2047861;29;20255;-68
2021/08/07 02:04:21;;;;;;;0.30;0.30;;;12.60;90.60;;;;;;2047753;28;20258;-69
2021/08/07 02:05:22;;;;;;;0.52;0.52;;;12.70;90.60;;;;;;2047739;29;20659;-68
2021/08/07 02:06:23;;;;;;;1.48;0.90;;;12.60;90.60;;;;;;2039943;29;20187;-69
2021/08/07 02:07:27;;;;;;;0.80;0.80;;;12.60;90.70;;;;;;2047767;28;20184;-68
2021/08/07 02:08:28;;;;;;;0.43;0.32;;;12.60;90.80;;;;;;2047769;29;20180;-69
2021/08/07 02:09:29;;;;;;;0.60;0.60;;;12.60;90.70;;;;;;2047848;28;20187;-69
2021/08/07 02:10:30;;;;;;;0.30;0.30;;;12.60;90.70;;;;;;2048566;28;20680;-69
2021/08/07 02:11:33;;;;;;;1.40;0.77;;;12.60;90.70;;;;;;2049299;29;20226;-69
2021/08/07 02:12:34;;;;;;;1.45;0.93;;;12.70;90.70;;;;;;2049327;29;20222;-69
2021/08/07 02:13:35;;;;;;;0.40;0.40;;;12.70;90.70;;;;;;2049382;28;20179;-68
2021/08/07 02:14:40;;;;;;;0.67;0.67;;;12.70;90.80;;;;;;2049227;29;20179;-69
2021/08/07 02:15:41;;;;;;;0.60;0.60;;;12.70;90.90;;;;;;2050162;28;20270;-69
2021/08/07 02:16:44;;;;;;;1.87;0.97;;;12.60;91.00;;;;;;2057223;28;20191;-67
2021/08/07 02:17:46;;;;;;;0.70;0.70;;;12.60;91.20;;;;;;2049204;29;20705;-69
2021/08/07 02:18:48;;;;;;;0.70;0.70;;;12.50;91.20;;;;;;2049350;28;20179;-69
2021/08/07 02:19:49;;;;;;;1.02;0.98;;;12.50;91.10;;;;;;2057184;28;20399;-68
2021/08/07 02:20:52;;;;;;;0.38;0.38;;;12.60;91.00;;;;;;2049303;29;20250;-69
2021/08/07 02:21:53;;;;;;;0.57;0.57;;;12.60;90.90;;;;;;2041621;29;20267;-69
2021/08/07 02:22:55;;;;;;;0.70;0.70;;;12.60;90.90;;;;;;2049349;28;20180;-68
2021/08/07 02:23:55;;;;;;;0.73;0.60;;;12.60;90.80;;;;;;2049245;29;20206;-69
2021/08/07 02:24:56;;;;;;;0.33;0.33;;;12.60;90.80;;;;;;2049300;29;20617;-68
2021/08/07 02:26:03;;;;;;;0.67;0.67;;;12.60;90.80;;;;;;2049783;28;20204;-68
2021/08/07 02:27:04;;;;;;;1.10;0.30;;;12.60;90.80;;;;;;2048957;29;20576;-68
2021/08/07 02:28:05;;;;;;;0.65;0.65;;;12.50;90.80;;;;;;2041382;29;20191;-68
2021/08/07 02:29:06;;;;;;;0.80;0.77;;;12.50;90.90;;;;;;2049153;28;20178;-68
2021/08/07 02:30:09;;;;;;;0.40;0.40;;;12.50;91.00;;;;;;2049272;29;20685;-68
2021/08/07 02:31:10;;;;;;;0.40;0.40;;;12.50;91.00;;;;;;2049232;29;20180;-68
2021/08/07 02:32:12;;;;;;;0.60;0.60;;;12.50;91.00;;;;;;2041362;29;20429;-68
2021/08/07 02:33:15;;;;;;;0.75;0.52;;;12.40;91.00;;;;;;2041209;29;20200;-68
2021/08/07 02:34:17;;;;;;;0.70;0.70;;;12.40;91.10;;;;;;2041642;29;20216;-68
2021/08/07 02:35:18;;;;;;;0.57;0.57;;;12.50;91.00;;;;;;2041329;29;20192;-69
2021/08/07 02:36:19;;;;;;;0.40;0.40;;;12.50;91.00;;;;;;2049193;29;20183;-69
2021/08/07 02:37:20;;;;;;;0.40;0.40;;;12.50;91.00;;;;;;2048961;29;20184;-68
2021/08/07 02:38:26;;;;;;;0.50;0.50;;;12.50;91.10;;;;;;2041140;29;20222;-68
2021/08/07 02:39:27;;;;;;;0.40;0.40;;;12.50;91.20;;;;;;2049838;28;20168;-69
2021/08/07 02:40:29;;;;;;;0.68;0.50;;;12.60;91.10;;;;;;2049150;29;20227;-69
2021/08/07 02:41:30;;;;;;;1.23;0.82;;;12.60;91.00;;;;;;2049243;29;20188;-68
2021/08/07 02:42:32;;;;;;;0.45;0.45;;;12.60;90.80;;;;;;2041446;29;20338;-68
2021/08/07 02:43:33;;;;;;;0.47;0.47;;;12.70;90.70;;;;;;2040930;29;20184;-68
2021/08/07 02:44:35;;;;;;;0.57;0.57;;;12.80;90.60;;;;;;2049115;29;20184;-68
2021/08/07 02:45:36;;;;;;;0.40;0.40;;;12.80;90.50;;;;;;2049172;29;20234;-70
2021/08/07 02:46:39;;;;;;;0.60;0.60;;;12.70;90.60;;;;;;2049221;29;20186;-68
2021/08/07 02:47:40;;;;;;;0.40;0.40;;;12.70;90.70;;;;;;2049549;28;20259;-69
2021/08/07 02:48:41;;;;;;;0.87;0.77;;;12.80;90.60;;;;;;2049027;29;20187;-68
2021/08/07 02:49:42;;;;;;;0.80;0.57;;;12.80;90.60;;;;;;2040827;29;20184;-69
2021/08/07 02:50:44;;;;;;;0.30;0.30;;;12.80;90.60;;;;;;2049186;29;20239;-68
2021/08/07 02:51:48;;;;;;;0.80;0.80;;;12.80;90.60;;;;;;2049198;28;20504;-69
2021/08/07 02:52:49;;;;;;;0.50;0.50;;;12.80;90.60;;;;;;2065097;28;20205;-68
2021/08/07 02:53:50;;;;;;;0.37;0.37;;;12.80;90.70;;;;;;2064919;28;20193;-68
2021/08/07 02:54:52;;;;;;;7.03;0.97;;;12.80;90.70;;;;;;2065012;28;20182;-68
2021/08/07 02:55:53;;;;;;;0.32;0.32;;;12.90;90.60;;;;;;2065016;28;20175;-68
2021/08/07 02:56:55;;;;;;;0.63;0.60;;;12.90;90.60;;;;;;2065156;28;20182;-68
2021/08/07 02:57:56;;;;;;;0.30;0.30;;;12.80;90.60;;;;;;2064992;28;20609;-68
2021/08/07 02:58:56;;;;;;;0.28;0.28;;;12.80;90.60;;;;;;2057130;28;20175;-68
2021/08/07 02:59:58;;;;;;;0.60;0.60;;;12.70;90.70;;;;;;2064807;28;20253;-68
2021/08/07 03:00:58;;;;;;;1.38;0.57;;;12.70;90.70;;;;;;2065674;28;20178;-68
2021/08/07 03:01:59;;;;;;;0.50;0.50;;;12.70;90.70;;;;;;2064908;28;20265;-68
2021/08/07 03:03:00;;;;;;;0.67;0.63;;;12.80;90.70;;;;;;2065086;28;20261;-69
2021/08/07 03:04:01;;;;;;;0.60;0.60;;;12.80;90.60;;;;;;2065560;28;20552;-68
2021/08/07 03:05:02;;;;;;;0.40;0.40;;;12.90;90.50;;;;;;2065685;28;20237;-68
2021/08/07 03:06:02;;;;;;;0.50;0.50;;;12.80;90.40;;;;;;2065590;28;20178;-68
2021/08/07 03:07:03;;;;;;;0.30;0.30;;;12.80;90.60;;;;;;2065477;28;20268;-68
2021/08/07 03:08:05;;;;;;;0.60;0.60;;;12.80;90.70;;;;;;2065028;28;20205;-69
2021/08/07 03:09:05;;;;;;;0.80;0.80;;;12.70;90.80;;;;;;2056871;28;20201;-68
2021/08/07 03:10:09;;;;;;;1.30;0.70;;;12.70;90.90;;;;;;2056896;28;20646;-69
2021/08/07 03:11:10;;;;;;;0.50;0.50;;;12.70;90.90;;;;;;2057356;28;20245;-69
2021/08/07 03:12:12;;;;;;;1.35;0.80;;;12.70;90.80;;;;;;2064975;28;20299;-69
2021/08/07 03:13:12;;;;;;;0.52;0.52;;;12.80;90.80;;;;;;2064794;28;20186;-68
2021/08/07 03:14:13;;;;;;;0.50;0.50;;;12.80;90.60;;;;;;2064893;28;20229;-68
2021/08/07 03:15:14;;;;;;;0.43;0.43;;;12.80;90.50;;;;;;2064852;28;20183;-68
2021/08/07 03:16:14;;;;;;;0.40;0.40;;;12.90;90.50;;;;;;2064861;28;20189;-68
2021/08/07 03:17:15;;;;;;;0.50;0.50;;;12.90;90.40;;;;;;2065278;28;20595;-68
2021/08/07 03:18:16;;;;;;;0.60;0.60;;;12.90;90.30;;;;;;2065469;28;20264;-68
2021/08/07 03:19:16;;;;;;;1.00;0.90;;;12.90;90.30;;;;;;2064715;28;20205;-69
2021/08/07 03:20:18;;;;;;;0.50;0.50;;;12.90;90.30;;;;;;2064813;28;20213;-68
2021/08/07 03:21:19;;;;;;;0.40;0.40;;;12.90;90.40;;;;;;2065234;28;20174;-68
2021/08/07 03:22:19;;;;;;;0.50;0.50;;;12.90;90.30;;;;;;2063958;28;20623;-68
2021/08/07 03:23:20;;;;;;;0.70;0.70;;;12.90;90.50;;;;;;2064824;28;20186;-68
2021/08/07 03:24:21;;;;;;;1.07;0.70;;;12.90;90.50;;;;;;2065354;28;20292;-69
2021/08/07 03:25:21;;;;;;;0.53;0.53;;;12.80;90.50;;;;;;2065351;28;20265;-68
2021/08/07 03:26:23;;;;;;;0.50;0.50;;;12.80;90.60;;;;;;2065333;28;20645;-69
2021/08/07 03:27:24;;;;;;;1.05;0.52;;;12.80;90.50;;;;;;2065229;28;20190;-68
2021/08/07 03:28:25;;;;;;;0.57;0.57;;;12.80;90.30;;;;;;2065399;28;20178;-69
2021/08/07 03:29:26;;;;;;;0.50;0.50;;;12.90;90.30;;;;;;2065318;28;20175;-68
2021/08/07 03:30:26;;;;;;;0.52;0.52;;;12.90;90.20;;;;;;2065413;28;20186;-68
2021/08/07 03:31:27;;;;;;;0.70;0.70;;;12.90;90.20;;;;;;2065363;28;20185;-69
2021/08/07 03:32:28;;;;;;;0.50;0.50;;;12.90;90.30;;;;;;2065307;28;20183;-68
2021/08/07 03:33:28;;;;;;;1.20;0.77;;;12.90;90.40;;;;;;2064726;28;20661;-68
2021/08/07 03:34:29;;;;;;;0.40;0.40;;;12.80;90.50;;;;;;2064940;28;20217;-68
2021/08/07 03:35:30;;;;;;;0.83;0.83;;;12.80;90.50;;;;;;2064856;28;20708;-68
2021/08/07 03:36:31;;;;;;;0.50;0.40;;;12.80;90.40;;;;;;2064922;28;20182;-68
2021/08/07 03:37:31;;;;;;;0.40;0.40;;;12.80;90.50;;;;;;2064499;28;20546;-68
2021/08/07 03:38:32;;;;;;;0.40;0.40;;;12.80;90.50;;;;;;2064817;28;20564;-69
2021/08/07 03:39:33;;;;;;;0.53;0.53;;;12.80;90.70;;;;;;2065310;28;20265;-68
2021/08/07 03:40:34;;;;;;;0.70;0.70;;;12.80;90.60;;;;;;2065172;28;20582;-68
2021/08/07 03:41:34;;;;;;;0.43;0.43;;;12.80;90.60;;;;;;2065284;28;20193;-68
2021/08/07 03:42:37;;;;;;;0.37;0.37;;;12.90;90.60;;;;;;2065201;28;20186;-69
2021/08/07 03:43:37;;;;;;;0.77;0.77;;;12.90;90.60;;;;;;2065037;28;20195;-68
2021/08/07 03:44:38;;;;;;;0.67;0.30;;;12.80;90.70;;;;;;2065299;28;20181;-69
2021/08/07 03:45:39;;;;;;;0.50;0.50;;;12.80;90.70;;;;;;2065244;28;20221;-69
2021/08/07 03:46:40;;;;;;;0.63;0.63;;;12.80;90.70;;;;;;2064826;28;20672;-68
2021/08/07 03:47:52;;;;;;;0.60;0.60;;;12.80;90.70;;;;;;2059075;28;20258;-68
2021/08/07 03:48:53;;;;;;;0.35;0.35;;;12.80;90.90;;;;;;2056609;28;20183;-68
2021/08/07 03:49:53;;;;;;;0.30;0.30;;;12.70;90.90;;;;;;2056489;28;20190;-69
2021/08/07 03:50:54;;;;;;;1.37;0.97;;;12.70;91.00;;;;;;2057248;28;20230;-69
2021/08/07 03:51:55;;;;;;;2.03;0.80;;;12.60;91.10;;;;;;2057263;28;20179;-68
2021/08/07 03:52:55;;;;;;;1.30;1.17;;;12.60;91.20;;;;;;2057177;28;20180;-69
2021/08/07 03:53:56;;;;;;;0.70;0.70;;;12.60;91.20;;;;;;2056839;28;20199;-69
2021/08/07 03:54:57;;;;;;;0.60;0.60;;;12.60;91.20;;;;;;2057299;28;20175;-68
2021/08/07 03:55:58;;;;;;;0.50;0.50;;;12.60;91.10;;;;;;2057241;28;20220;-68
2021/08/07 03:56:58;;;;;;;0.60;0.60;;;12.60;91.10;;;;;;2056920;28;20599;-69
2021/08/07 03:58:00;;;;;;;0.73;0.73;;;12.70;91.00;;;;;;2057166;28;20175;-68
2021/08/07 03:59:00;;;;;;;0.47;0.47;;;12.70;90.90;;;;;;2056980;28;20183;-69
2021/08/07 04:00:01;;;;;;;0.60;0.60;;;12.80;90.90;;;;;;2056966;28;20350;-68
2021/08/07 04:01:02;;;;;;;0.30;0.30;;;12.80;91.50;;;;;;2056386;28;20179;-68
2021/08/07 04:02:02;;;;;;;0.27;0.27;;;12.80;91.00;;;;;;2055884;28;20412;-69
2021/08/07 04:03:03;;;;;;;0.73;0.63;;;12.80;91.00;;;;;;2056315;28;20439;-68
2021/08/07 04:04:05;;;;;;;0.60;0.60;;;12.70;91.10;;;;;;2056501;28;20195;-68
2021/08/07 04:05:06;;;;;;;1.58;0.80;;;12.80;91.10;;;;;;2056482;28;20626;-69
2021/08/07 04:06:07;;;;;;;0.90;0.83;;;12.80;90.80;;;;;;2056770;28;20183;-68
2021/08/07 04:07:07;;;;;;;0.27;0.27;;;12.80;90.70;;;;;;2057066;28;20222;-68
2021/08/07 04:08:09;;;;;;;1.70;0.80;;;12.80;90.80;;;;;;2057170;28;20709;-68
2021/08/07 04:09:09;;;;;;;0.77;0.77;;;12.80;90.80;;;;;;2056501;28;20222;-68
2021/08/07 04:10:11;;;;;;;0.83;0.83;;;12.80;90.90;;;;;;2056553;28;20180;-68
2021/08/07 04:11:12;;;;;;;0.40;0.40;;;12.80;90.80;;;;;;2056550;28;20628;-69
2021/08/07 04:12:12;;;;;;;0.50;0.50;;;12.90;90.70;;;;;;2040638;29;20208;-68
2021/08/07 04:13:13;;;;;;;1.10;0.93;;;12.90;90.50;;;;;;2048549;29;20223;-68
2021/08/07 04:14:14;;;;;;;0.57;0.57;;;12.80;90.60;;;;;;2057075;28;20195;-71
2021/08/07 04:15:15;;;;;;;0.40;0.40;;;12.80;90.70;;;;;;2057160;28;20217;-68
2021/08/07 04:16:15;;;;;;;0.53;0.33;;;12.80;90.80;;;;;;2056524;28;20183;-68
2021/08/07 04:17:16;;;;;;;0.50;0.50;;;12.80;90.70;;;;;;2056455;28;20195;-68
2021/08/07 04:18:17;;;;;;;0.50;0.50;;;12.80;90.70;;;;;;2057082;28;20274;-68
2021/08/07 04:19:18;;;;;;;0.30;0.30;;;12.80;90.80;;;;;;2057003;28;20678;-68
2021/08/07 04:20:19;;;;;;;0.30;0.30;;;12.80;90.80;;;;;;2057177;28;20225;-68
2021/08/07 04:21:19;;;;;;;1.20;0.73;;;12.70;90.90;;;;;;2056513;28;20214;-70
2021/08/07 04:22:20;;;;;;;0.50;0.40;;;12.80;90.80;;;;;;2056518;28;20658;-71
2021/08/07 04:23:21;;;;;;;0.50;0.50;;;12.80;91.30;;;;;;2057043;28;20199;-68
2021/08/07 04:24:22;;;;;;;13.47;0.87;;;12.80;90.80;;;;;;2057046;28;20199;-68
2021/08/07 04:25:22;;;;;;;0.97;0.50;;;12.80;90.80;;;;;;2057162;28;20190;-68
2021/08/07 04:26:23;;;;;;;0.47;0.47;;;12.80;90.80;;;;;;2057003;28;20189;-68
2021/08/07 04:27:24;;;;;;;0.60;0.60;;;12.80;90.80;;;;;;2056865;28;20258;-68
2021/08/07 04:28:25;;;;;;;0.83;0.83;;;12.80;90.80;;;;;;2056367;28;20225;-69
2021/08/07 04:29:26;;;;;;;0.38;0.38;;;12.90;90.80;;;;;;2056243;28;20680;-68
2021/08/07 04:30:26;;;;;;;0.30;0.30;;;12.90;90.80;;;;;;2056470;28;20193;-69
2021/08/07 04:31:27;;;;;;;0.53;0.53;;;12.90;90.80;;;;;;2056867;28;20187;-68
2021/08/07 04:32:28;;;;;;;0.80;0.80;;;12.90;90.80;;;;;;2056923;28;20186;-68
2021/08/07 04:33:29;;;;;;;2.15;0.75;;;12.90;90.70;;;;;;2056795;28;20191;-68
2021/08/07 04:34:30;;;;;;;0.63;0.63;;;13.00;90.70;;;;;;2056286;28;20206;-68
2021/08/07 04:35:30;;;;;;;0.60;0.47;;;13.00;90.70;;;;;;2056363;28;20708;-69
2021/08/07 04:36:31;;;;;;;1.90;1.03;;;13.00;90.80;;;;;;2056812;28;20183;-68
2021/08/07 04:37:48;;;;;;;0.70;0.70;;;13.00;90.80;;;;;;2056148;28;20187;-68
2021/08/07 04:38:49;;;;;;;0.60;0.60;;;13.00;91.30;;;;;;2056633;28;20175;-69
2021/08/07 04:39:50;;;;;;;0.43;0.43;;;13.00;90.80;;;;;;2056850;28;20183;-68
2021/08/07 04:40:50;;;;;;;0.30;0.30;;;13.00;90.70;;;;;;2056282;28;20398;-68
2021/08/07 04:41:51;;;;;;;1.07;0.50;;;13.00;90.60;;;;;;2056329;28;20191;-68
2021/08/07 04:42:52;;;;;;;0.50;0.50;;;13.00;90.50;;;;;;2056325;28;20183;-68
2021/08/07 04:43:52;;;;;;;0.60;0.60;;;13.00;90.50;;;;;;2056845;28;20262;-68
2021/08/07 04:44:53;;;;;;;0.40;0.40;;;13.00;90.50;;;;;;2056908;28;20183;-68
2021/08/07 04:45:54;;;;;;;0.70;0.67;;;13.00;90.50;;;;;;2056965;28;20326;-68
2021/08/07 04:46:55;;;;;;;0.40;0.40;;;13.00;90.50;;;;;;2056706;28;20278;-68
2021/08/07 04:48:03;;;;;;;0.50;0.50;;;12.90;90.50;;;;;;2056317;28;20270;-68
2021/08/07 04:49:03;;;;;;;0.22;0.22;;;12.90;90.50;;;;;;2056294;28;20179;-68
2021/08/07 04:50:05;;;;;;;0.40;0.40;;;12.90;90.50;;;;;;2056165;28;20171;-68
2021/08/07 04:51:05;;;;;;;0.40;0.40;;;12.90;90.50;;;;;;2056250;28;20233;-68
2021/08/07 04:52:06;;;;;;;1.10;0.70;;;12.90;90.60;;;;;;2056833;28;20638;-67
2021/08/07 04:53:07;;;;;;;0.60;0.60;;;12.90;90.60;;;;;;2056705;28;20179;-69
2021/08/07 04:54:10;;;;;;;3.13;0.50;;;12.90;90.60;;;;;;2056761;28;20210;-68
2021/08/07 04:55:11;;;;;;;0.47;0.47;;;12.90;90.60;;;;;;2056718;28;20203;-69
2021/08/07 04:56:11;;;;;;;1.50;0.80;;;12.90;90.50;;;;;;2050566;28;20191;-68
2021/08/07 04:57:12;;;;;;;0.40;0.40;;;13.00;90.50;;;;;;2048394;28;20195;-68
2021/08/07 04:58:14;;;;;;;0.73;0.73;;;13.00;90.50;;;;;;2048587;28;20184;-69
2021/08/07 04:59:15;;;;;;;1.33;0.90;;;13.10;90.40;;;;;;2048505;28;20200;-68
2021/08/07 05:00:17;;;;;;;0.33;0.33;;;13.10;90.40;;;;;;2048700;28;20244;-68
2021/08/07 05:01:17;;;;;;;0.68;0.65;;;13.00;90.40;;;;;;2048097;29;20234;-67
2021/08/07 05:02:18;;;;;;;1.27;1.17;;;13.00;90.40;;;;;;2048194;29;20207;-68
2021/08/07 05:03:19;;;;;;;1.07;0.97;;;13.00;90.30;;;;;;2048636;28;20631;-69
2021/08/07 05:04:19;;;;;;;0.50;0.50;;;13.10;90.30;;;;;;2048567;29;20199;-68
2021/08/07 05:05:20;;;;;;;0.77;0.77;;;13.10;90.20;;;;;;2048668;28;20184;-68
2021/08/07 05:06:21;;;;;;;0.23;0.23;;;13.10;90.10;;;;;;2047882;29;20709;-69
2021/08/07 05:07:22;;;;;;;0.30;0.30;;;13.10;90.00;;;;;;2047849;29;20191;-69
2021/08/07 05:08:22;;;;;;;0.30;0.30;;;13.10;90.00;;;;;;2048713;28;20187;-68
2021/08/07 05:09:23;;;;;;;0.33;0.33;;;13.10;90.00;;;;;;2048567;28;20191;-68
2021/08/07 05:10:24;;;;;;;0.47;0.47;;;13.00;90.00;;;;;;2048654;28;20198;-69
2021/08/07 05:11:24;;;;;;;0.97;0.60;;;13.00;90.10;;;;;;2048632;28;20729;-68
2021/08/07 05:12:27;;;;;;;0.83;0.83;;;13.00;90.30;;;;;;2048715;28;20226;-68
2021/08/07 05:13:28;;;;;;;0.30;0.30;;;12.90;90.30;;;;;;2048002;29;20294;-69
2021/08/07 05:14:28;;;;;;;0.40;0.40;;;12.90;90.50;;;;;;2047722;29;20208;-68
2021/08/07 05:15:29;;;;;;;2.57;0.97;;;13.00;90.40;;;;;;2048580;28;20568;-70
2021/08/07 05:16:30;;;;;;;0.80;0.53;;;13.00;90.40;;;;;;2048726;28;20223;-70
2021/08/07 05:17:31;;;;;;;0.50;0.50;;;13.00;90.40;;;;;;2048468;28;20195;-69
2021/08/07 05:18:31;;;;;;;0.30;0.30;;;13.00;90.30;;;;;;2048768;28;20605;-69
2021/08/07 05:19:32;;;;;;;0.60;0.60;;;13.10;90.30;;;;;;2048378;28;20187;-68
2021/08/07 05:20:33;;;;;;;0.47;0.47;;;13.10;90.20;;;;;;2048811;29;20215;-69
2021/08/07 05:21:34;;;;;;;1.00;0.80;;;13.20;90.20;;;;;;2048060;29;20196;-70
2021/08/07 05:22:36;;;;;;;1.67;0.40;;;13.20;90.20;;;;;;2048012;29;20246;-70
2021/08/07 05:23:36;;;;;;;1.30;0.77;;;13.20;90.10;;;;;;2048492;28;20176;-69
2021/08/07 05:24:37;;;;;;;0.30;0.30;;;13.10;90.20;;;;;;2048490;28;20179;-70
2021/08/07 05:25:38;;;;;;;0.50;0.50;;;13.10;90.20;;;;;;2048569;28;20203;-69
2021/08/07 05:26:39;;;;;;;0.50;0.50;;;13.00;90.20;;;;;;2048579;28;20207;-69